Arch Cape, Oregon
Current Conditions -  °F | °C
As of 4:55 AM on Saturday 25 Oct 2014 (Local Time) from KAST Reporting Station
Overcast Overcast  
Wind Chill: 53°   Ceiling: 10000
Heat Index: 53°   Visibility: 10mi
Dew Point: 50°   Wind: 5mph
Humidity: 89%   Direction: 230°SW
Pressure: 29.48"   Gusts: NA
Location:  45.8°N, 123.96°W
Report Text: KAST 251155Z AUTO 23004KT 10SM SCT075 OVC100 12/10 A2948 RMK AO2 PRESRR SLP983 70036 T01170100 10133 20117 55030
Loading
Personal Weather Stations






























Interactive Weather Map
Tropical Storm Tracking
New forecast layout! Learn more

10-Day Weather Forecast

Advertisements
Track Severe Weather on mobile